Enter the Airport ICAO Code

Search by Airport or City

Current Weather

KFXE | Fort Lauderdale Executive Airport

Fort Lauderdale, Florida, United States

Last Update 12 Minutes Ago

Completely Cloudy Sky

Temperature of 21 ºC

Moderate Winds from East with Gusts

Temperature

21 ºC

Dew Point Temperature

11 ºC

Relative Humidity

52.98 %

Wind Direction

East (080º, Without Significant Variations)

Wind Velocity

26 km/h (14 kt)

Gusts

39 km/h (21 kt)

Visibility

Greater than 10 Miles

Sea Level Pressure

30.35 inHg (Inches of Mercury)

Layers of Clouds

90% to 100% of Sky Covered from 1981 mts (6500 ft) Above Ground Level.

METAR KFXE 090953Z 08014G21KT 10SM OVC065 21/11 A3035 RMK AO2 SLP280 T02060106

Weather Forecast

KFXE | Fort Lauderdale Executive Airport

Fort Lauderdale, Florida, United States

Forecast valid for the next 20 Hours

From now on it is expected:

Mostly Cloudy Sky

Moderate Winds from East with Gusts

In 14 hours it is expected the begining of:

Partly Cloudy Sky

Moderate Winds from East

Maximum Temperature

No Data

Minimum Temperature

No Data

TAF KFXE 090855Z 0909/1006 07011G21KT P6SM BKN050 FM091400 07015G25KT P6SM SCT030 BKN070 FM100000 07012KT P6SM SCT030